sensor_id;sensor_type;location;lat;lon;timestamp;pressure;altitude;pressure_sealevel;temperature;humidity
48386;BME280;34644;47.964;7.982;2024-03-08T00:03:28;96275.25;;;16.59;51.28
48386;BME280;34644;47.964;7.982;2024-03-08T00:10:29;96267.25;;;16.59;51.40
48386;BME280;34644;47.964;7.982;2024-03-08T00:17:29;96264.03;;;16.62;51.45
48386;BME280;34644;47.964;7.982;2024-03-08T00:24:29;96254.47;;;16.61;51.31
48386;BME280;34644;47.964;7.982;2024-03-08T00:31:31;96256.06;;;16.62;51.43
48386;BME280;34644;47.964;7.982;2024-03-08T00:38:31;96244.34;;;16.63;51.41
48386;BME280;34644;47.964;7.982;2024-03-08T00:45:32;96236.06;;;16.65;51.54
48386;BME280;34644;47.964;7.982;2024-03-08T00:52:32;96236.88;;;16.66;51.30
48386;BME280;34644;47.964;7.982;2024-03-08T00:59:34;96219.31;;;16.64;51.51
48386;BME280;34644;47.964;7.982;2024-03-08T01:06:35;96211.03;;;16.66;51.57
48386;BME280;34644;47.964;7.982;2024-03-08T01:13:35;96212.66;;;16.67;51.38
48386;BME280;34644;47.964;7.982;2024-03-08T01:20:38;96200.13;;;16.68;51.44
48386;BME280;34644;47.964;7.982;2024-03-08T01:27:40;96186.31;;;16.66;51.52
48386;BME280;34644;47.964;7.982;2024-03-08T01:34:40;96182.56;;;16.67;51.62
48386;BME280;34644;47.964;7.982;2024-03-08T01:41:40;96175.69;;;16.66;51.57
48386;BME280;34644;47.964;7.982;2024-03-08T01:48:41;96171.91;;;16.67;51.53
48386;BME280;34644;47.964;7.982;2024-03-08T01:55:41;96162.38;;;16.66;51.50
48386;BME280;34644;47.964;7.982;2024-03-08T02:02:42;96152.50;;;16.66;51.58
48386;BME280;34644;47.964;7.982;2024-03-08T02:09:43;96147.19;;;16.66;51.44
48386;BME280;34644;47.964;7.982;2024-03-08T02:16:43;96141.59;;;16.68;51.53
48386;BME280;34644;47.964;7.982;2024-03-08T02:23:44;96146.63;;;16.69;51.60
48386;BME280;34644;47.964;7.982;2024-03-08T02:30:45;96143.19;;;16.69;51.33
48386;BME280;34644;47.964;7.982;2024-03-08T02:37:46;96136.28;;;16.68;51.64
48386;BME280;34644;47.964;7.982;2024-03-08T02:44:47;96120.31;;;16.68;51.44
48386;BME280;34644;47.964;7.982;2024-03-08T02:51:48;96110.72;;;16.67;51.58
48386;BME280;34644;47.964;7.982;2024-03-08T02:58:48;96093.19;;;16.66;51.47
48386;BME280;34644;47.964;7.982;2024-03-08T03:05:49;96090.25;;;16.67;51.52
48386;BME280;34644;47.964;7.982;2024-03-08T03:12:50;96076.44;;;16.65;51.59
48386;BME280;34644;47.964;7.982;2024-03-08T03:19:50;96078.31;;;16.64;51.60
48386;BME280;34644;47.964;7.982;2024-03-08T03:26:51;96076.75;;;16.63;51.60
48386;BME280;34644;47.964;7.982;2024-03-08T03:33:52;96071.41;;;16.63;51.75
48386;BME280;34644;47.964;7.982;2024-03-08T03:40:52;96073.56;;;16.61;51.72
48386;BME280;34644;47.964;7.982;2024-03-08T03:47:56;96073.84;;;16.60;51.82
48386;BME280;34644;47.964;7.982;2024-03-08T03:54:56;96063.72;;;16.62;51.66
48386;BME280;34644;47.964;7.982;2024-03-08T04:01:57;96065.56;;;16.61;51.72
48386;BME280;34644;47.964;7.982;2024-03-08T04:08:57;96057.59;;;16.61;51.85
48386;BME280;34644;47.964;7.982;2024-03-08T04:15:58;96061.84;;;16.62;51.93
48386;BME280;34644;47.964;7.982;2024-03-08T04:22:58;96072.47;;;16.62;51.85
48386;BME280;34644;47.964;7.982;2024-03-08T04:29:59;96061.34;;;16.60;51.94
48386;BME280;34644;47.964;7.982;2024-03-08T04:37:00;96054.94;;;16.61;51.80
48386;BME280;34644;47.964;7.982;2024-03-08T04:44:00;96040.19;;;15.38;46.71
48386;BME280;34644;47.964;7.982;2024-03-08T04:51:01;96038.88;;;15.70;47.41
48386;BME280;34644;47.964;7.982;2024-03-08T04:58:01;96035.75;;;15.92;48.82
48386;BME280;34644;47.964;7.982;2024-03-08T05:05:01;96022.09;;;16.04;49.48
48386;BME280;34644;47.964;7.982;2024-03-08T05:12:02;96018.03;;;16.12;50.06
48386;BME280;34644;47.964;7.982;2024-03-08T05:19:02;96021.94;;;16.19;50.56
48386;BME280;34644;47.964;7.982;2024-03-08T05:26:03;96014.97;;;16.23;50.96
48386;BME280;34644;47.964;7.982;2024-03-08T05:33:03;96012.91;;;15.32;39.67
48386;BME280;34644;47.964;7.982;2024-03-08T05:40:04;96014.63;;;14.08;41.36
48386;BME280;34644;47.964;7.982;2024-03-08T05:47:09;96011.22;;;14.62;42.96
48386;BME280;34644;47.964;7.982;2024-03-08T05:54:10;96022.34;;;14.70;42.68
48386;BME280;34644;47.964;7.982;2024-03-08T06:01:10;96018.09;;;14.74;47.44
48386;BME280;34644;47.964;7.982;2024-03-08T06:08:12;96026.28;;;14.77;48.18
48386;BME280;34644;47.964;7.982;2024-03-08T06:15:14;96027.34;;;14.76;48.15
48386;BME280;34644;47.964;7.982;2024-03-08T06:22:16;96026.28;;;14.77;47.52
48386;BME280;34644;47.964;7.982;2024-03-08T06:29:16;96026.00;;;14.79;49.71
48386;BME280;34644;47.964;7.982;2024-03-08T06:36:16;96017.78;;;14.80;48.85
48386;BME280;34644;47.964;7.982;2024-03-08T06:43:18;96011.94;;;14.78;45.11
48386;BME280;34644;47.964;7.982;2024-03-08T06:50:19;96006.63;;;14.83;45.25
48386;BME280;34644;47.964;7.982;2024-03-08T06:57:19;95992.81;;;14.87;45.42
48386;BME280;34644;47.964;7.982;2024-03-08T07:04:22;95981.38;;;14.91;45.22
48386;BME280;34644;47.964;7.982;2024-03-08T07:11:26;95978.16;;;14.94;45.00
48386;BME280;34644;47.964;7.982;2024-03-08T07:18:27;95970.72;;;14.96;45.06
48386;BME280;34644;47.964;7.982;2024-03-08T07:25:27;95960.06;;;15.01;45.22
48386;BME280;34644;47.964;7.982;2024-03-08T07:32:29;95960.81;;;15.07;45.38
48386;BME280;34644;47.964;7.982;2024-03-08T07:39:30;95941.41;;;15.12;45.28
48386;BME280;34644;47.964;7.982;2024-03-08T07:46:30;95946.94;;;15.15;45.07
48386;BME280;34644;47.964;7.982;2024-03-08T07:53:30;95945.31;;;15.19;44.95
48386;BME280;34644;47.964;7.982;2024-03-08T08:00:31;95931.47;;;15.23;44.87
48386;BME280;34644;47.964;7.982;2024-03-08T08:07:31;95935.94;;;15.27;45.08
48386;BME280;34644;47.964;7.982;2024-03-08T08:14:31;95938.03;;;15.30;44.95
48386;BME280;34644;47.964;7.982;2024-03-08T08:21:32;95923.16;;;15.34;44.85
48386;BME280;34644;47.964;7.982;2024-03-08T08:28:32;95922.59;;;15.37;44.86
48386;BME280;34644;47.964;7.982;2024-03-08T08:35:32;95914.84;;;15.41;45.06
48386;BME280;34644;47.964;7.982;2024-03-08T08:42:33;95916.38;;;15.47;45.29
48386;BME280;34644;47.964;7.982;2024-03-08T08:49:33;95909.16;;;15.53;46.00
48386;BME280;34644;47.964;7.982;2024-03-08T08:56:33;95908.00;;;15.59;46.87
48386;BME280;34644;47.964;7.982;2024-03-08T09:03:33;95912.47;;;15.64;47.18
48386;BME280;34644;47.964;7.982;2024-03-08T09:10:34;95913.31;;;15.59;47.48
48386;BME280;34644;47.964;7.982;2024-03-08T09:17:35;95904.63;;;15.53;47.70
48386;BME280;34644;47.964;7.982;2024-03-08T09:24:35;95887.91;;;15.53;47.79
48386;BME280;34644;47.964;7.982;2024-03-08T09:31:36;95879.44;;;15.51;48.12
48386;BME280;34644;47.964;7.982;2024-03-08T09:38:38;95868.53;;;15.52;48.10
48386;BME280;34644;47.964;7.982;2024-03-08T09:45:39;95859.00;;;15.51;48.12
48386;BME280;34644;47.964;7.982;2024-03-08T09:52:41;95849.38;;;15.55;48.21
48386;BME280;34644;47.964;7.982;2024-03-08T09:59:43;95844.88;;;15.56;48.44
48386;BME280;34644;47.964;7.982;2024-03-08T10:06:47;95840.34;;;15.56;48.17
48386;BME280;34644;47.964;7.982;2024-03-08T10:13:47;95834.75;;;15.58;48.49
48386;BME280;34644;47.964;7.982;2024-03-08T10:21:03;95833.66;;;15.59;48.26
48386;BME280;34644;47.964;7.982;2024-03-08T10:28:04;95837.59;;;15.62;48.36
48386;BME280;34644;47.964;7.982;2024-03-08T10:35:05;95827.00;;;15.62;48.51
48386;BME280;34644;47.964;7.982;2024-03-08T10:42:05;95822.97;;;15.64;48.41
48386;BME280;34644;47.964;7.982;2024-03-08T10:49:16;95817.66;;;15.64;48.49
48386;BME280;34644;47.964;7.982;2024-03-08T10:56:17;95811.25;;;15.65;48.64
48386;BME280;34644;47.964;7.982;2024-03-08T11:10:46;95790.53;;;15.67;48.72
48386;BME280;34644;47.964;7.982;2024-03-08T11:17:49;95779.09;;;15.67;48.90
48386;BME280;34644;47.964;7.982;2024-03-08T11:24:50;95766.34;;;15.69;49.16
48386;BME280;34644;47.964;7.982;2024-03-08T11:31:50;95762.59;;;15.70;49.28
48386;BME280;34644;47.964;7.982;2024-03-08T11:38:51;95757.00;;;15.71;49.47
48386;BME280;34644;47.964;7.982;2024-03-08T11:46:07;95749.03;;;15.71;49.64
48386;BME280;34644;47.964;7.982;2024-03-08T11:53:08;95742.66;;;15.72;49.77
48386;BME280;34644;47.964;7.982;2024-03-08T12:00:14;95730.66;;;15.75;49.96
48386;BME280;34644;47.964;7.982;2024-03-08T12:07:21;95730.66;;;15.75;49.91
48386;BME280;34644;47.964;7.982;2024-03-08T12:14:22;95712.59;;;15.77;49.70
48386;BME280;34644;47.964;7.982;2024-03-08T12:21:22;95691.34;;;15.77;49.51
48386;BME280;34644;47.964;7.982;2024-03-08T12:28:25;95676.19;;;15.78;50.34
48386;BME280;34644;47.964;7.982;2024-03-08T12:35:27;95672.47;;;15.79;50.82
48386;BME280;34644;47.964;7.982;2024-03-08T12:42:28;95665.75;;;15.81;51.14
48386;BME280;34644;47.964;7.982;2024-03-08T12:49:28;95633.88;;;15.81;51.40
48386;BME280;34644;47.964;7.982;2024-03-08T12:56:32;95628.00;;;15.84;51.74
48386;BME280;34644;47.964;7.982;2024-03-08T13:03:34;95608.59;;;15.84;52.10
48386;BME280;34644;47.964;7.982;2024-03-08T13:10:35;95595.53;;;15.87;52.57
48386;BME280;34644;47.964;7.982;2024-03-08T13:17:36;95586.47;;;15.88;52.70
48386;BME280;34644;47.964;7.982;2024-03-08T13:24:39;95581.66;;;15.90;53.07
48386;BME280;34644;47.964;7.982;2024-03-08T13:31:40;95563.88;;;15.91;53.42
48386;BME280;34644;47.964;7.982;2024-03-08T13:38:44;95553.72;;;15.93;53.61
48386;BME280;34644;47.964;7.982;2024-03-08T13:45:44;95538.56;;;15.94;53.80
48386;BME280;34644;47.964;7.982;2024-03-08T13:52:45;95520.47;;;15.96;53.92
48386;BME280;34644;47.964;7.982;2024-03-08T13:59:46;95527.06;;;15.98;54.02
48386;BME280;34644;47.964;7.982;2024-03-08T14:06:47;95529.41;;;16.00;54.09
48386;BME280;34644;47.964;7.982;2024-03-08T14:13:49;95516.13;;;16.00;54.20
48386;BME280;34644;47.964;7.982;2024-03-08T14:20:49;95506.78;;;16.02;54.27
48386;BME280;34644;47.964;7.982;2024-03-08T14:27:51;95503.84;;;16.04;54.23
48386;BME280;34644;47.964;7.982;2024-03-08T14:34:53;95504.31;;;16.06;54.39
48386;BME280;34644;47.964;7.982;2024-03-08T14:41:55;95492.63;;;16.07;54.24
48386;BME280;34644;47.964;7.982;2024-03-08T14:48:56;95494.19;;;16.08;54.32
48386;BME280;34644;47.964;7.982;2024-03-08T14:55:56;95492.31;;;16.08;54.49
48386;BME280;34644;47.964;7.982;2024-03-08T15:02:56;95494.69;;;16.10;54.55
48386;BME280;34644;47.964;7.982;2024-03-08T15:09:57;95486.72;;;16.10;54.36
48386;BME280;34644;47.964;7.982;2024-03-08T15:16:57;95487.97;;;16.13;54.27
48386;BME280;34644;47.964;7.982;2024-03-08T15:23:57;95485.84;;;16.15;54.24
48386;BME280;34644;47.964;7.982;2024-03-08T15:30:58;95475.19;;;16.15;54.10
48386;BME280;34644;47.964;7.982;2024-03-08T15:38:05;95466.63;;;16.18;54.01
48386;BME280;34644;47.964;7.982;2024-03-08T15:45:05;95458.38;;;16.19;54.03
48386;BME280;34644;47.964;7.982;2024-03-08T15:52:06;95436.88;;;16.30;48.38
48386;BME280;34644;47.964;7.982;2024-03-08T15:59:06;95438.66;;;16.20;49.83
48386;BME280;34644;47.964;7.982;2024-03-08T16:06:07;95425.66;;;16.19;46.83
48386;BME280;34644;47.964;7.982;2024-03-08T16:13:08;95405.50;;;16.04;46.27
48386;BME280;34644;47.964;7.982;2024-03-08T16:20:10;95394.59;;;15.91;46.13
48386;BME280;34644;47.964;7.982;2024-03-08T16:27:12;95378.66;;;15.78;46.30
48386;BME280;34644;47.964;7.982;2024-03-08T16:34:13;95362.31;;;15.70;46.51
48386;BME280;34644;47.964;7.982;2024-03-08T16:41:15;95374.91;;;15.51;45.60
48386;BME280;34644;47.964;7.982;2024-03-08T16:48:17;95388.25;;;15.32;46.12
48386;BME280;34644;47.964;7.982;2024-03-08T16:55:18;95378.00;;;15.11;45.85
48386;BME280;34644;47.964;7.982;2024-03-08T17:02:20;95379.25;;;15.00;46.74
48386;BME280;34644;47.964;7.982;2024-03-08T17:09:20;95373.84;;;15.05;44.16
48386;BME280;34644;47.964;7.982;2024-03-08T17:16:22;95385.03;;;15.02;42.00
48386;BME280;34644;47.964;7.982;2024-03-08T17:23:24;95371.28;;;15.00;41.00
48386;BME280;34644;47.964;7.982;2024-03-08T17:30:27;95382.66;;;14.87;40.62
48386;BME280;34644;47.964;7.982;2024-03-08T17:37:28;95379.31;;;14.81;41.27
48386;BME280;34644;47.964;7.982;2024-03-08T17:44:28;95378.13;;;14.87;43.82
48386;BME280;34644;47.964;7.982;2024-03-08T17:51:30;95374.06;;;15.09;44.98
48386;BME280;34644;47.964;7.982;2024-03-08T17:58:30;95372.91;;;15.29;45.83
48386;BME280;34644;47.964;7.982;2024-03-08T18:05:30;95377.56;;;15.51;46.34
48386;BME280;34644;47.964;7.982;2024-03-08T18:12:32;95383.06;;;15.54;46.73
48386;BME280;34644;47.964;7.982;2024-03-08T18:19:32;95395.44;;;15.59;47.09
48386;BME280;34644;47.964;7.982;2024-03-08T18:26:33;95406.78;;;15.65;47.16
48386;BME280;34644;47.964;7.982;2024-03-08T18:33:33;95435.88;;;15.70;47.38
48386;BME280;34644;47.964;7.982;2024-03-08T18:40:34;95436.88;;;15.74;47.58
48386;BME280;34644;47.964;7.982;2024-03-08T18:47:35;95437.91;;;15.78;47.96
48386;BME280;34644;47.964;7.982;2024-03-08T18:54:35;95433.56;;;15.82;48.12
48386;BME280;34644;47.964;7.982;2024-03-08T19:01:36;95440.94;;;15.85;48.10
48386;BME280;34644;47.964;7.982;2024-03-08T19:08:38;95446.44;;;15.89;48.27
48386;BME280;34644;47.964;7.982;2024-03-08T19:15:38;95424.91;;;15.90;48.37
48386;BME280;34644;47.964;7.982;2024-03-08T19:22:39;95417.91;;;15.95;48.56
48386;BME280;34644;47.964;7.982;2024-03-08T19:29:40;95426.38;;;15.97;48.52
48386;BME280;34644;47.964;7.982;2024-03-08T19:36:40;95410.94;;;15.99;48.69
48386;BME280;34644;47.964;7.982;2024-03-08T19:43:40;95422.03;;;16.01;48.78
48386;BME280;34644;47.964;7.982;2024-03-08T19:50:41;95417.22;;;16.03;48.88
48386;BME280;34644;47.964;7.982;2024-03-08T19:57:43;95412.09;;;16.06;48.93
48386;BME280;34644;47.964;7.982;2024-03-08T20:04:45;95420.88;;;16.07;48.89
48386;BME280;34644;47.964;7.982;2024-03-08T20:11:46;95418.69;;;16.09;49.11
48386;BME280;34644;47.964;7.982;2024-03-08T20:18:47;95421.81;;;16.11;48.97
48386;BME280;34644;47.964;7.982;2024-03-08T20:25:48;95417.78;;;16.14;49.08
48386;BME280;34644;47.964;7.982;2024-03-08T20:32:50;95431.09;;;16.14;49.15
48386;BME280;34644;47.964;7.982;2024-03-08T20:39:54;95428.91;;;16.16;49.24
48386;BME280;34644;47.964;7.982;2024-03-08T20:46:55;95416.91;;;16.18;49.29
48386;BME280;34644;47.964;7.982;2024-03-08T20:53:57;95415.03;;;16.19;49.18
48386;BME280;34644;47.964;7.982;2024-03-08T21:00:58;95432.56;;;16.20;49.19
48386;BME280;34644;47.964;7.982;2024-03-08T21:07:59;95440.25;;;16.21;49.20
48386;BME280;34644;47.964;7.982;2024-03-08T21:15:00;95448.41;;;16.25;49.23
48386;BME280;34644;47.964;7.982;2024-03-08T21:22:03;95447.31;;;16.26;49.23
48386;BME280;34644;47.964;7.982;2024-03-08T21:29:04;95447.03;;;16.27;49.21
48386;BME280;34644;47.964;7.982;2024-03-08T21:36:04;95440.59;;;16.28;49.23
48386;BME280;34644;47.964;7.982;2024-03-08T21:43:05;95459.72;;;16.31;49.28
48386;BME280;34644;47.964;7.982;2024-03-08T21:50:06;95449.09;;;16.31;49.19
48386;BME280;34644;47.964;7.982;2024-03-08T21:57:09;95464.44;;;16.34;49.23
48386;BME280;34644;47.964;7.982;2024-03-08T22:04:10;95464.94;;;16.36;49.51
48386;BME280;34644;47.964;7.982;2024-03-08T22:11:11;95477.94;;;16.37;49.49
48386;BME280;34644;47.964;7.982;2024-03-08T22:18:12;95484.81;;;16.38;49.57
48386;BME280;34644;47.964;7.982;2024-03-08T22:25:15;95481.88;;;16.40;49.38
48386;BME280;34644;47.964;7.982;2024-03-08T22:32:17;95478.91;;;16.41;49.46
48386;BME280;34644;47.964;7.982;2024-03-08T22:39:17;95487.38;;;16.43;49.46
48386;BME280;34644;47.964;7.982;2024-03-08T22:46:21;95492.69;;;16.43;49.37
48386;BME280;34644;47.964;7.982;2024-03-08T22:53:21;95500.28;;;16.22;46.78
48386;BME280;34644;47.964;7.982;2024-03-08T23:00:21;95501.63;;;16.48;48.88
48386;BME280;34644;47.964;7.982;2024-03-08T23:07:25;95514.72;;;16.58;50.10
48386;BME280;34644;47.964;7.982;2024-03-08T23:14:25;95518.38;;;16.62;49.94
48386;BME280;34644;47.964;7.982;2024-03-08T23:21:28;95517.47;;;16.67;50.27
48386;BME280;34644;47.964;7.982;2024-03-08T23:28:28;95523.28;;;16.69;50.10
48386;BME280;34644;47.964;7.982;2024-03-08T23:35:32;95514.19;;;16.70;50.23
48386;BME280;34644;47.964;7.982;2024-03-08T23:42:33;95527.50;;;16.70;50.17
48386;BME280;34644;47.964;7.982;2024-03-08T23:49:33;95523.00;;;16.70;50.26
48386;BME280;34644;47.964;7.982;2024-03-08T23:56:33;95516.78;;;16.75;50.29
